createdAt,value
2022-11-27T00:02:53.489Z,101765.87
2022-11-27T00:06:30.944Z,101759.63
2022-11-27T00:10:09.936Z,101763.22
2022-11-27T00:13:41.603Z,101759.31
2022-11-27T00:16:59.343Z,101770.56
2022-11-27T00:20:35.903Z,101770.09
2022-11-27T00:28:01.492Z,101767.81
2022-11-27T00:31:40.316Z,101767.47
2022-11-27T00:34:58.592Z,101764.88
2022-11-27T00:38:23.296Z,101767.81
2022-11-27T00:41:50.451Z,101766.19
2022-11-27T00:45:31.223Z,101762.78
2022-11-27T00:49:13.065Z,101772.25
2022-11-27T00:52:52.967Z,101762.59
2022-11-27T00:56:38.655Z,101767.81
2022-11-27T01:00:21.403Z,101770.09
2022-11-27T01:04:01.588Z,101770.44
2022-11-27T01:07:39.312Z,101770.13
2022-11-27T01:11:34.521Z,101774.69
2022-11-27T01:15:16.385Z,101773.53
2022-11-27T01:18:59.610Z,101779.72
2022-11-27T01:22:38.481Z,101769.13
2022-11-27T01:26:19.359Z,101771.25
2022-11-27T01:29:42.445Z,101766.34
2022-11-27T01:33:17.492Z,101774.69
2022-11-27T01:36:40.589Z,101776.47
2022-11-27T01:40:21.801Z,101770.75
2022-11-27T01:44:27.978Z,101778.91
2022-11-27T01:47:59.990Z,101775.66
2022-11-27T01:51:37.124Z,101782.19
2022-11-27T01:55:30.326Z,101768.78
2022-11-27T01:58:53.410Z,101772.41
2022-11-27T02:02:40.824Z,101767.50
2022-11-27T02:06:20.837Z,101772.22
2022-11-27T02:10:00.729Z,101776.97
2022-11-27T02:14:00.972Z,101782.19
2022-11-27T02:18:12.428Z,101777.62
2022-11-27T02:22:06.551Z,101779.91
2022-11-27T02:25:43.840Z,101783.84
2022-11-27T02:29:28.616Z,101781.53
2022-11-27T02:33:08.671Z,101770.94
2022-11-27T02:36:39.402Z,101768.97
2022-11-27T02:40:38.279Z,101775.50
2022-11-27T02:44:19.796Z,101776.84
2022-11-27T02:47:42.139Z,101782.53
2022-11-27T02:51:20.579Z,101780.25
2022-11-27T02:54:50.700Z,101770.44
2022-11-27T02:58:18.376Z,101780.41
2022-11-27T03:02:06.423Z,101783.19
2022-11-27T03:05:48.861Z,101787.28
2022-11-27T03:09:36.964Z,101780.91
2022-11-27T03:13:13.239Z,101781.91
2022-11-27T03:16:59.085Z,101782.53
2022-11-27T03:20:52.725Z,101775.19
2022-11-27T03:24:27.516Z,101784.66
2022-11-27T03:28:09.280Z,101788.09
2022-11-27T03:35:34.616Z,101782.22
2022-11-27T03:39:12.129Z,101779.28
2022-11-27T03:43:32.057Z,101783.84
2022-11-27T03:47:20.185Z,101783.50
2022-11-27T03:51:27.889Z,101792.19
2022-11-27T03:58:52.563Z,101796.91
2022-11-27T04:02:44.551Z,101802.81
2022-11-27T04:06:03.371Z,101799.19
2022-11-27T04:09:39.268Z,101790.38
2022-11-27T04:13:19.363Z,101789.41
2022-11-27T04:16:55.080Z,101783.84
2022-11-27T04:20:16.305Z,101795.13
2022-11-27T04:23:47.817Z,101787.75
2022-11-27T04:34:54.731Z,101794.31
2022-11-27T04:38:40.718Z,101786.47
2022-11-27T04:42:04.072Z,101788.25
2022-11-27T04:45:36.315Z,101783.50
2022-11-27T04:49:05.891Z,101782.22
2022-11-27T04:52:45.475Z,101780.56
2022-11-27T04:56:26.380Z,101785.50
2022-11-27T05:11:21.003Z,101767.81
2022-11-27T05:14:54.374Z,101769.13
2022-11-27T05:18:42.758Z,101779.28
2022-11-27T05:22:23.277Z,101775.97
2022-11-27T05:29:48.586Z,101779.56
2022-11-27T05:33:26.134Z,101776.75
2022-11-27T05:37:03.083Z,101783.78
2022-11-27T05:40:42.183Z,101777.88
2022-11-27T05:44:12.828Z,101770.28
2022-11-27T05:47:48.451Z,101775.31
2022-11-27T05:51:30.027Z,101774.97
2022-11-27T05:55:16.032Z,101781.03
2022-11-27T05:58:52.541Z,101783.44
2022-11-27T06:02:30.836Z,101772.13
2022-11-27T06:05:50.889Z,101783.06
2022-11-27T06:09:13.134Z,101777.47
2022-11-27T06:12:43.484Z,101779.56
2022-11-27T06:16:20.738Z,101789.44
2022-11-27T06:20:03.116Z,101793.37
2022-11-27T06:23:45.929Z,101794.84
2022-11-27T06:27:07.075Z,101795.66
2022-11-27T06:33:59.245Z,101802.19
2022-11-27T06:37:27.935Z,101805.09
2022-11-27T06:41:27.269Z,101805.63
2022-11-27T06:44:53.818Z,101809.97
2022-11-27T06:48:30.539Z,101804.72
2022-11-27T06:52:27.992Z,101805.56
2022-11-27T06:56:32.097Z,101814.09
2022-11-27T07:00:25.744Z,101825.38
2022-11-27T07:04:22.203Z,101812.03
2022-11-27T07:11:55.024Z,101819.09
2022-11-27T07:15:26.361Z,101809.59
2022-11-27T07:19:23.829Z,101812.59
2022-11-27T07:23:05.364Z,101798.41
2022-11-27T07:26:40.670Z,101807.44
2022-11-27T07:30:17.684Z,101814.09
2022-11-27T07:33:53.615Z,101819.63
2022-11-27T07:37:06.121Z,101817.28
2022-11-27T07:40:48.882Z,101820.41
2022-11-27T07:44:13.544Z,101818.97
2022-11-27T07:47:49.823Z,101814.59
2022-11-27T07:51:36.579Z,101823.16
2022-11-27T07:55:17.490Z,101824.25
2022-11-27T08:19:20.428Z,101815.38
2022-11-27T08:23:03.258Z,101819.25
2022-11-27T08:30:15.969Z,101811.78
2022-11-27T10:24:11.876Z,101818.41
2022-11-27T10:28:42.298Z,101812.53
2022-11-27T11:19:58.204Z,101768.25
2022-11-27T11:47:08.054Z,101736.78
2022-11-27T11:55:31.089Z,101725.25
2022-11-27T14:20:06.018Z,101696.19
2022-11-27T14:25:31.877Z,101704.69
2022-11-27T14:28:41.193Z,101704.53
2022-11-27T14:49:36.964Z,101701.63
2022-11-27T14:49:58.363Z,101707.31
2022-11-27T14:53:20.120Z,101697.91
2022-11-27T14:57:14.983Z,101706.34
2022-11-27T15:01:21.431Z,101708.25
2022-11-27T15:08:38.135Z,101720.59
2022-11-27T15:12:52.810Z,101719.72
2022-11-27T15:17:08.494Z,101722.81
2022-11-27T15:20:42.500Z,101721.25
2022-11-27T15:23:52.663Z,101725.31
2022-11-27T15:28:01.098Z,101719.09
2022-11-27T15:32:38.102Z,101722.25
2022-11-27T15:36:27.911Z,101709.69
2022-11-27T15:51:51.577Z,101708.25
2022-11-27T15:55:47.000Z,101710.31
2022-11-27T15:59:31.222Z,101712.94
2022-11-27T16:03:51.867Z,101712.56
2022-11-27T16:08:10.842Z,101711.31
2022-11-27T16:12:41.008Z,101711.41
2022-11-27T16:15:33.125Z,101714.63
2022-11-27T16:19:38.462Z,101708.13
2022-11-27T16:34:27.422Z,101698.56
2022-11-27T16:37:52.422Z,101698.28
2022-11-27T16:41:32.862Z,101686.97
2022-11-27T16:44:39.202Z,101688.03
2022-11-27T16:49:22.704Z,101687.59
2022-11-27T17:02:23.189Z,101677.72
2022-11-27T17:06:45.802Z,101674.13
2022-11-27T17:28:39.716Z,101666.78
2022-11-27T17:32:27.383Z,101663.16
2022-11-27T18:17:22.321Z,101626.69
2022-11-27T18:28:09.756Z,101625.59
2022-11-27T18:32:01.686Z,101623.78
2022-11-27T18:36:21.463Z,101621.09
2022-11-27T18:40:09.402Z,101624.81
2022-11-27T18:43:17.055Z,101619.38
2022-11-27T18:46:50.824Z,101618.81
2022-11-27T18:50:37.264Z,101611.16
2022-11-27T18:54:19.222Z,101603.28
2022-11-27T18:57:59.282Z,101603.91
2022-11-27T19:02:30.157Z,101611.31
2022-11-27T19:06:26.537Z,101607.34
2022-11-27T19:10:06.742Z,101608.06
2022-11-27T19:13:47.192Z,101606.72
2022-11-27T19:17:01.571Z,101606.34
2022-11-27T19:21:01.636Z,101612.47
2022-11-27T19:24:29.566Z,101611.59
2022-11-27T19:27:59.809Z,101619.03
2022-11-27T19:31:51.596Z,101613.84
2022-11-27T19:35:39.808Z,101618.00
2022-11-27T19:39:12.023Z,101615.38
2022-11-27T19:43:13.911Z,101612.59
2022-11-27T19:46:45.922Z,101623.53
2022-11-27T19:50:27.676Z,101626.06
2022-11-27T19:54:05.642Z,101619.75
2022-11-27T19:57:45.116Z,101620.34
2022-11-27T20:01:29.478Z,101613.84
2022-11-27T20:09:07.448Z,101617.94
2022-11-27T20:13:22.993Z,101615.66
2022-11-27T20:16:51.230Z,101600.66
2022-11-27T20:20:42.084Z,101594.94
2022-11-27T20:24:21.500Z,101589.25
2022-11-27T20:27:57.483Z,101592.31
2022-11-27T20:31:29.292Z,101586.63
2022-11-27T20:35:14.069Z,101592.87
2022-11-27T20:38:43.427Z,101583.28
2022-11-27T20:42:31.845Z,101590.63
2022-11-27T20:46:10.424Z,101589.16
2022-11-27T20:53:22.393Z,101581.94
2022-11-27T20:57:15.256Z,101585.63
2022-11-27T21:04:39.211Z,101570.72
2022-11-27T21:08:08.264Z,101566.63
2022-11-27T21:11:42.358Z,101578.59
2022-11-27T21:15:06.196Z,101577.31
2022-11-27T21:18:32.936Z,101581.56
2022-11-27T21:22:06.932Z,101574.06
2022-11-27T21:25:31.897Z,101577.50
2022-11-27T21:29:15.404Z,101575.97
2022-11-27T21:32:42.251Z,101580.00
2022-11-27T21:36:40.780Z,101565.91
2022-11-27T21:40:13.719Z,101575.87
2022-11-27T21:43:47.372Z,101567.28
2022-11-27T21:47:46.005Z,101564.84
2022-11-27T21:51:13.658Z,101559.59
2022-11-27T21:54:53.765Z,101562.13
2022-11-27T21:59:14.574Z,101555.97
2022-11-27T22:02:53.014Z,101556.69
2022-11-27T22:10:15.367Z,101558.59
2022-11-27T22:14:03.523Z,101555.53
2022-11-27T22:17:53.269Z,101554.28
2022-11-27T22:21:36.765Z,101552.72
2022-11-27T22:25:14.367Z,101552.00
2022-11-27T22:32:38.336Z,101552.91
2022-11-27T22:36:25.088Z,101543.94
2022-11-27T22:39:55.996Z,101547.12
2022-11-27T22:43:37.111Z,101546.31
2022-11-27T22:55:30.991Z,101541.06
2022-11-27T22:59:38.303Z,101539.16
2022-11-27T23:03:41.199Z,101542.03
2022-11-27T23:12:25.857Z,101537.50
2022-11-27T23:16:59.839Z,101527.78
2022-11-27T23:25:49.671Z,101525.44
2022-11-27T23:29:47.118Z,101525.78
2022-11-27T23:33:36.570Z,101507.69
2022-11-27T23:41:30.148Z,101481.47
2022-11-27T23:45:46.473Z,101481.59
2022-11-27T23:49:16.561Z,101468.09
2022-11-27T23:52:57.346Z,101460.72
2022-11-27T23:56:34.946Z,101465.59
